sensor_id;sensor_type;location;lat;lon;timestamp;P1;durP1;ratioP1;P2;durP2;ratioP2
25639;SDS011;13497;48.322;16.204;2023-09-07T00:01:29;2.38;;;2.17;;
25639;SDS011;13497;48.322;16.204;2023-09-07T00:03:56;2.92;;;2.17;;
25639;SDS011;13497;48.322;16.204;2023-09-07T00:06:22;2.50;;;2.00;;
25639;SDS011;13497;48.322;16.204;2023-09-07T00:08:48;2.20;;;2.00;;
25639;SDS011;13497;48.322;16.204;2023-09-07T00:11:14;2.35;;;2.10;;
25639;SDS011;13497;48.322;16.204;2023-09-07T00:13:39;2.03;;;1.83;;
25639;SDS011;13497;48.322;16.204;2023-09-07T00:16:05;2.20;;;1.87;;
25639;SDS011;13497;48.322;16.204;2023-09-07T00:18:33;2.10;;;1.90;;
25639;SDS011;13497;48.322;16.204;2023-09-07T00:20:59;2.90;;;1.98;;
25639;SDS011;13497;48.322;16.204;2023-09-07T00:25:51;4.35;;;1.90;;
25639;SDS011;13497;48.322;16.204;2023-09-07T00:28:17;5.13;;;2.30;;
25639;SDS011;13497;48.322;16.204;2023-09-07T00:30:42;2.17;;;1.97;;
25639;SDS011;13497;48.322;16.204;2023-09-07T00:33:08;3.00;;;2.47;;
25639;SDS011;13497;48.322;16.204;2023-09-07T00:35:34;2.92;;;2.15;;
25639;SDS011;13497;48.322;16.204;2023-09-07T00:38:00;2.47;;;1.98;;
25639;SDS011;13497;48.322;16.204;2023-09-07T00:40:26;3.33;;;2.08;;
25639;SDS011;13497;48.322;16.204;2023-09-07T00:42:52;2.97;;;2.20;;
25639;SDS011;13497;48.322;16.204;2023-09-07T00:45:18;4.70;;;2.28;;
25639;SDS011;13497;48.322;16.204;2023-09-07T00:47:44;3.00;;;2.15;;
25639;SDS011;13497;48.322;16.204;2023-09-07T00:50:10;2.40;;;2.20;;
25639;SDS011;13497;48.322;16.204;2023-09-07T00:52:39;3.20;;;2.47;;
25639;SDS011;13497;48.322;16.204;2023-09-07T00:55:07;2.88;;;2.50;;
25639;SDS011;13497;48.322;16.204;2023-09-07T00:57:34;2.70;;;2.20;;
25639;SDS011;13497;48.322;16.204;2023-09-07T01:00:00;4.20;;;2.28;;
25639;SDS011;13497;48.322;16.204;2023-09-07T01:02:31;2.28;;;2.08;;
25639;SDS011;13497;48.322;16.204;2023-09-07T01:04:57;3.43;;;2.20;;
25639;SDS011;13497;48.322;16.204;2023-09-07T01:07:28;4.25;;;2.08;;
25639;SDS011;13497;48.322;16.204;2023-09-07T01:10:03;2.75;;;2.25;;
25639;SDS011;13497;48.322;16.204;2023-09-07T01:12:29;5.63;;;2.22;;
25639;SDS011;13497;48.322;16.204;2023-09-07T01:14:55;5.65;;;2.38;;
25639;SDS011;13497;48.322;16.204;2023-09-07T01:17:21;3.27;;;2.20;;
25639;SDS011;13497;48.322;16.204;2023-09-07T01:19:51;2.25;;;2.00;;
25639;SDS011;13497;48.322;16.204;2023-09-07T01:22:19;2.20;;;1.98;;
25639;SDS011;13497;48.322;16.204;2023-09-07T01:24:47;3.28;;;2.55;;
25639;SDS011;13497;48.322;16.204;2023-09-07T01:27:15;2.78;;;2.33;;
25639;SDS011;13497;48.322;16.204;2023-09-07T01:29:41;2.83;;;2.38;;
25639;SDS011;13497;48.322;16.204;2023-09-07T01:32:07;2.50;;;2.30;;
25639;SDS011;13497;48.322;16.204;2023-09-07T01:34:34;2.45;;;2.25;;
25639;SDS011;13497;48.322;16.204;2023-09-07T01:37:00;3.10;;;2.28;;
25639;SDS011;13497;48.322;16.204;2023-09-07T01:39:26;3.20;;;2.43;;
25639;SDS011;13497;48.322;16.204;2023-09-07T01:41:52;4.37;;;2.40;;
25639;SDS011;13497;48.322;16.204;2023-09-07T01:44:17;3.47;;;2.17;;
25639;SDS011;13497;48.322;16.204;2023-09-07T01:49:10;2.72;;;2.10;;
25639;SDS011;13497;48.322;16.204;2023-09-07T01:51:35;3.63;;;2.60;;
25639;SDS011;13497;48.322;16.204;2023-09-07T01:54:01;2.33;;;2.10;;
25639;SDS011;13497;48.322;16.204;2023-09-07T01:56:27;2.58;;;2.30;;
25639;SDS011;13497;48.322;16.204;2023-09-07T01:58:53;6.40;;;2.60;;
25639;SDS011;13497;48.322;16.204;2023-09-07T02:01:25;4.90;;;2.57;;
25639;SDS011;13497;48.322;16.204;2023-09-07T02:03:52;2.60;;;2.30;;
25639;SDS011;13497;48.322;16.204;2023-09-07T02:06:18;2.53;;;2.17;;
25639;SDS011;13497;48.322;16.204;2023-09-07T02:08:44;5.85;;;2.47;;
25639;SDS011;13497;48.322;16.204;2023-09-07T02:11:10;4.40;;;2.10;;
25639;SDS011;13497;48.322;16.204;2023-09-07T02:13:35;3.67;;;2.37;;
25639;SDS011;13497;48.322;16.204;2023-09-07T02:16:04;3.27;;;2.70;;
25639;SDS011;13497;48.322;16.204;2023-09-07T02:18:35;2.78;;;2.35;;
25639;SDS011;13497;48.322;16.204;2023-09-07T02:21:03;2.40;;;2.20;;
25639;SDS011;13497;48.322;16.204;2023-09-07T02:23:29;4.28;;;2.50;;
25639;SDS011;13497;48.322;16.204;2023-09-07T02:25:58;3.35;;;2.40;;
25639;SDS011;13497;48.322;16.204;2023-09-07T02:30:51;4.05;;;2.55;;
25639;SDS011;13497;48.322;16.204;2023-09-07T02:33:17;3.72;;;2.60;;
25639;SDS011;13497;48.322;16.204;2023-09-07T02:35:42;3.03;;;2.27;;
25639;SDS011;13497;48.322;16.204;2023-09-07T02:38:08;2.83;;;2.27;;
25639;SDS011;13497;48.322;16.204;2023-09-07T02:40:40;5.63;;;2.57;;
25639;SDS011;13497;48.322;16.204;2023-09-07T02:43:07;2.80;;;2.50;;
25639;SDS011;13497;48.322;16.204;2023-09-07T02:45:34;3.17;;;2.80;;
25639;SDS011;13497;48.322;16.204;2023-09-07T02:48:00;2.92;;;2.10;;
25639;SDS011;13497;48.322;16.204;2023-09-07T02:50:28;3.43;;;2.60;;
25639;SDS011;13497;48.322;16.204;2023-09-07T02:52:55;3.33;;;2.35;;
25639;SDS011;13497;48.322;16.204;2023-09-07T02:55:21;3.37;;;2.33;;
25639;SDS011;13497;48.322;16.204;2023-09-07T02:57:46;5.60;;;2.50;;
25639;SDS011;13497;48.322;16.204;2023-09-07T03:00:12;5.00;;;2.60;;
25639;SDS011;13497;48.322;16.204;2023-09-07T03:02:38;2.80;;;2.17;;
25639;SDS011;13497;48.322;16.204;2023-09-07T03:05:03;3.93;;;2.23;;
25639;SDS011;13497;48.322;16.204;2023-09-07T03:07:33;2.97;;;2.33;;
25639;SDS011;13497;48.322;16.204;2023-09-07T03:10:00;5.43;;;2.58;;
25639;SDS011;13497;48.322;16.204;2023-09-07T03:12:26;2.90;;;2.40;;
25639;SDS011;13497;48.322;16.204;2023-09-07T03:14:53;3.22;;;2.35;;
25639;SDS011;13497;48.322;16.204;2023-09-07T03:17:19;2.45;;;2.25;;
25639;SDS011;13497;48.322;16.204;2023-09-07T03:19:46;2.25;;;2.05;;
25639;SDS011;13497;48.322;16.204;2023-09-07T03:22:12;4.68;;;2.47;;
25639;SDS011;13497;48.322;16.204;2023-09-07T03:24:38;3.42;;;2.20;;
25639;SDS011;13497;48.322;16.204;2023-09-07T03:27:04;2.97;;;2.67;;
25639;SDS011;13497;48.322;16.204;2023-09-07T03:29:33;2.50;;;2.30;;
25639;SDS011;13497;48.322;16.204;2023-09-07T03:32:00;2.60;;;2.40;;
25639;SDS011;13497;48.322;16.204;2023-09-07T03:34:26;3.70;;;2.42;;
25639;SDS011;13497;48.322;16.204;2023-09-07T03:36:52;2.50;;;2.30;;
25639;SDS011;13497;48.322;16.204;2023-09-07T03:39:17;4.07;;;2.70;;
25639;SDS011;13497;48.322;16.204;2023-09-07T03:41:44;4.13;;;2.60;;
25639;SDS011;13497;48.322;16.204;2023-09-07T03:44:10;5.53;;;2.35;;
25639;SDS011;13497;48.322;16.204;2023-09-07T03:46:35;2.58;;;2.20;;
25639;SDS011;13497;48.322;16.204;2023-09-07T03:49:01;4.13;;;2.65;;
25639;SDS011;13497;48.322;16.204;2023-09-07T03:51:27;3.45;;;2.53;;
25639;SDS011;13497;48.322;16.204;2023-09-07T03:53:53;5.63;;;2.40;;
25639;SDS011;13497;48.322;16.204;2023-09-07T03:56:19;5.63;;;2.60;;
25639;SDS011;13497;48.322;16.204;2023-09-07T03:58:44;3.00;;;2.33;;
25639;SDS011;13497;48.322;16.204;2023-09-07T04:01:13;5.50;;;2.72;;
25639;SDS011;13497;48.322;16.204;2023-09-07T04:03:39;3.10;;;2.80;;
25639;SDS011;13497;48.322;16.204;2023-09-07T04:06:08;2.97;;;2.58;;
25639;SDS011;13497;48.322;16.204;2023-09-07T04:08:34;2.27;;;2.07;;
25639;SDS011;13497;48.322;16.204;2023-09-07T04:11:04;2.90;;;2.60;;
25639;SDS011;13497;48.322;16.204;2023-09-07T04:13:30;4.03;;;2.53;;
25639;SDS011;13497;48.322;16.204;2023-09-07T04:15:57;3.70;;;2.47;;
25639;SDS011;13497;48.322;16.204;2023-09-07T04:18:22;3.13;;;2.83;;
25639;SDS011;13497;48.322;16.204;2023-09-07T04:20:48;3.08;;;2.50;;
25639;SDS011;13497;48.322;16.204;2023-09-07T04:23:14;2.77;;;2.23;;
25639;SDS011;13497;48.322;16.204;2023-09-07T04:25:40;4.43;;;3.15;;
25639;SDS011;13497;48.322;16.204;2023-09-07T04:28:05;2.77;;;2.43;;
25639;SDS011;13497;48.322;16.204;2023-09-07T04:30:38;3.80;;;3.00;;
25639;SDS011;13497;48.322;16.204;2023-09-07T04:33:05;3.90;;;2.53;;
25639;SDS011;13497;48.322;16.204;2023-09-07T04:35:33;3.70;;;2.40;;
25639;SDS011;13497;48.322;16.204;2023-09-07T04:37:58;2.80;;;2.60;;
25639;SDS011;13497;48.322;16.204;2023-09-07T04:40:24;4.20;;;2.60;;
25639;SDS011;13497;48.322;16.204;2023-09-07T04:42:50;3.40;;;2.60;;
25639;SDS011;13497;48.322;16.204;2023-09-07T04:45:16;3.38;;;2.88;;
25639;SDS011;13497;48.322;16.204;2023-09-07T04:47:43;3.03;;;2.53;;
25639;SDS011;13497;48.322;16.204;2023-09-07T04:50:09;4.45;;;2.80;;
25639;SDS011;13497;48.322;16.204;2023-09-07T04:52:35;4.43;;;2.55;;
25639;SDS011;13497;48.322;16.204;2023-09-07T04:55:01;3.28;;;2.40;;
25639;SDS011;13497;48.322;16.204;2023-09-07T04:57:27;2.92;;;2.50;;
25639;SDS011;13497;48.322;16.204;2023-09-07T04:59:52;3.17;;;2.40;;
25639;SDS011;13497;48.322;16.204;2023-09-07T05:02:18;3.28;;;2.55;;
25639;SDS011;13497;48.322;16.204;2023-09-07T05:04:44;3.33;;;2.50;;
25639;SDS011;13497;48.322;16.204;2023-09-07T05:07:10;5.53;;;2.95;;
25639;SDS011;13497;48.322;16.204;2023-09-07T05:09:35;5.50;;;3.03;;
25639;SDS011;13497;48.322;16.204;2023-09-07T05:12:01;4.30;;;2.40;;
25639;SDS011;13497;48.322;16.204;2023-09-07T05:14:27;3.50;;;2.45;;
25639;SDS011;13497;48.322;16.204;2023-09-07T05:16:54;3.97;;;2.90;;
25639;SDS011;13497;48.322;16.204;2023-09-07T05:19:21;2.53;;;2.22;;
25639;SDS011;13497;48.322;16.204;2023-09-07T05:21:48;2.75;;;2.20;;
25639;SDS011;13497;48.322;16.204;2023-09-07T05:24:14;5.15;;;2.20;;
25639;SDS011;13497;48.322;16.204;2023-09-07T05:26:42;3.63;;;2.30;;
25639;SDS011;13497;48.322;16.204;2023-09-07T05:29:09;2.72;;;2.30;;
25639;SDS011;13497;48.322;16.204;2023-09-07T05:31:36;2.88;;;2.38;;
25639;SDS011;13497;48.322;16.204;2023-09-07T05:34:03;2.72;;;2.45;;
25639;SDS011;13497;48.322;16.204;2023-09-07T05:36:28;5.15;;;2.38;;
25639;SDS011;13497;48.322;16.204;2023-09-07T05:38:54;3.70;;;2.83;;
25639;SDS011;13497;48.322;16.204;2023-09-07T05:41:20;3.70;;;2.50;;
25639;SDS011;13497;48.322;16.204;2023-09-07T05:43:45;2.30;;;2.03;;
25639;SDS011;13497;48.322;16.204;2023-09-07T05:46:11;4.57;;;2.50;;
25639;SDS011;13497;48.322;16.204;2023-09-07T05:48:37;4.55;;;2.55;;
25639;SDS011;13497;48.322;16.204;2023-09-07T05:51:02;2.65;;;2.33;;
25639;SDS011;13497;48.322;16.204;2023-09-07T05:53:28;3.05;;;2.40;;
25639;SDS011;13497;48.322;16.204;2023-09-07T05:55:54;3.97;;;2.40;;
25639;SDS011;13497;48.322;16.204;2023-09-07T05:58:20;3.45;;;2.45;;
25639;SDS011;13497;48.322;16.204;2023-09-07T06:00:45;2.90;;;2.45;;
25639;SDS011;13497;48.322;16.204;2023-09-07T06:03:11;2.87;;;2.63;;
25639;SDS011;13497;48.322;16.204;2023-09-07T06:05:37;2.80;;;2.47;;
25639;SDS011;13497;48.322;16.204;2023-09-07T06:08:03;2.72;;;2.45;;
25639;SDS011;13497;48.322;16.204;2023-09-07T06:10:31;2.70;;;2.50;;
25639;SDS011;13497;48.322;16.204;2023-09-07T06:12:57;3.80;;;2.35;;
25639;SDS011;13497;48.322;16.204;2023-09-07T06:15:23;7.80;;;2.72;;
25639;SDS011;13497;48.322;16.204;2023-09-07T06:17:49;3.20;;;2.85;;
25639;SDS011;13497;48.322;16.204;2023-09-07T06:20:15;2.57;;;2.07;;
25639;SDS011;13497;48.322;16.204;2023-09-07T06:22:40;7.95;;;2.85;;
25639;SDS011;13497;48.322;16.204;2023-09-07T06:25:06;5.72;;;2.20;;
25639;SDS011;13497;48.322;16.204;2023-09-07T06:27:32;2.67;;;2.22;;
25639;SDS011;13497;48.322;16.204;2023-09-07T06:29:58;5.65;;;3.05;;
25639;SDS011;13497;48.322;16.204;2023-09-07T06:32:24;4.53;;;2.70;;
25639;SDS011;13497;48.322;16.204;2023-09-07T06:34:49;2.30;;;2.10;;
25639;SDS011;13497;48.322;16.204;2023-09-07T06:37:17;2.75;;;2.55;;
25639;SDS011;13497;48.322;16.204;2023-09-07T06:39:42;2.65;;;2.00;;
25639;SDS011;13497;48.322;16.204;2023-09-07T06:42:08;3.60;;;2.60;;
25639;SDS011;13497;48.322;16.204;2023-09-07T06:44:35;2.70;;;2.50;;
25639;SDS011;13497;48.322;16.204;2023-09-07T06:47:01;2.47;;;2.28;;
25639;SDS011;13497;48.322;16.204;2023-09-07T06:49:27;5.07;;;2.17;;
25639;SDS011;13497;48.322;16.204;2023-09-07T06:51:54;4.82;;;2.95;;
25639;SDS011;13497;48.322;16.204;2023-09-07T06:54:23;4.97;;;2.90;;
25639;SDS011;13497;48.322;16.204;2023-09-07T06:56:49;3.22;;;2.25;;
25639;SDS011;13497;48.322;16.204;2023-09-07T06:59:14;5.43;;;2.65;;
25639;SDS011;13497;48.322;16.204;2023-09-07T07:01:40;2.88;;;2.65;;
25639;SDS011;13497;48.322;16.204;2023-09-07T07:04:06;5.88;;;4.07;;
25639;SDS011;13497;48.322;16.204;2023-09-07T07:06:32;3.00;;;2.40;;
25639;SDS011;13497;48.322;16.204;2023-09-07T07:08:58;2.40;;;2.00;;
25639;SDS011;13497;48.322;16.204;2023-09-07T07:11:24;2.63;;;2.03;;
25639;SDS011;13497;48.322;16.204;2023-09-07T07:13:50;3.13;;;2.25;;
25639;SDS011;13497;48.322;16.204;2023-09-07T07:16:16;2.30;;;2.03;;
25639;SDS011;13497;48.322;16.204;2023-09-07T07:18:42;2.55;;;2.35;;
25639;SDS011;13497;48.322;16.204;2023-09-07T07:21:07;2.90;;;2.33;;
25639;SDS011;13497;48.322;16.204;2023-09-07T07:23:34;3.65;;;2.78;;
25639;SDS011;13497;48.322;16.204;2023-09-07T07:26:00;3.08;;;2.30;;
25639;SDS011;13497;48.322;16.204;2023-09-07T07:28:25;2.92;;;2.13;;
25639;SDS011;13497;48.322;16.204;2023-09-07T07:30:51;3.25;;;2.53;;
25639;SDS011;13497;48.322;16.204;2023-09-07T07:33:18;3.55;;;2.55;;
25639;SDS011;13497;48.322;16.204;2023-09-07T07:38:11;2.90;;;2.40;;
25639;SDS011;13497;48.322;16.204;2023-09-07T07:40:38;3.60;;;2.58;;
25639;SDS011;13497;48.322;16.204;2023-09-07T07:43:04;3.00;;;2.63;;
25639;SDS011;13497;48.322;16.204;2023-09-07T07:45:31;2.20;;;2.00;;
25639;SDS011;13497;48.322;16.204;2023-09-07T07:48:01;3.60;;;2.40;;
25639;SDS011;13497;48.322;16.204;2023-09-07T07:50:27;2.70;;;2.50;;
25639;SDS011;13497;48.322;16.204;2023-09-07T07:52:52;2.72;;;2.53;;
25639;SDS011;13497;48.322;16.204;2023-09-07T07:55:18;4.22;;;2.65;;
25639;SDS011;13497;48.322;16.204;2023-09-07T07:57:44;3.10;;;2.72;;
25639;SDS011;13497;48.322;16.204;2023-09-07T08:00:09;4.93;;;2.88;;
25639;SDS011;13497;48.322;16.204;2023-09-07T08:02:36;5.78;;;3.00;;
25639;SDS011;13497;48.322;16.204;2023-09-07T08:05:02;5.25;;;2.92;;
25639;SDS011;13497;48.322;16.204;2023-09-07T08:07:29;5.07;;;2.97;;
25639;SDS011;13497;48.322;16.204;2023-09-07T08:09:55;3.92;;;2.88;;
25639;SDS011;13497;48.322;16.204;2023-09-07T08:12:20;2.80;;;2.47;;
25639;SDS011;13497;48.322;16.204;2023-09-07T08:14:46;3.40;;;2.75;;
25639;SDS011;13497;48.322;16.204;2023-09-07T08:17:12;3.33;;;2.88;;
25639;SDS011;13497;48.322;16.204;2023-09-07T08:19:37;3.00;;;2.67;;
25639;SDS011;13497;48.322;16.204;2023-09-07T08:22:04;3.85;;;3.03;;
25639;SDS011;13497;48.322;16.204;2023-09-07T08:24:30;5.93;;;2.65;;
25639;SDS011;13497;48.322;16.204;2023-09-07T08:26:56;4.70;;;2.90;;
25639;SDS011;13497;48.322;16.204;2023-09-07T08:31:51;3.00;;;2.50;;
25639;SDS011;13497;48.322;16.204;2023-09-07T08:36:45;3.47;;;2.60;;
25639;SDS011;13497;48.322;16.204;2023-09-07T08:39:11;5.43;;;2.58;;
25639;SDS011;13497;48.322;16.204;2023-09-07T08:41:41;3.63;;;2.47;;
25639;SDS011;13497;48.322;16.204;2023-09-07T08:44:11;3.15;;;2.75;;
25639;SDS011;13497;48.322;16.204;2023-09-07T08:46:39;2.60;;;2.40;;
25639;SDS011;13497;48.322;16.204;2023-09-07T08:49:06;6.75;;;2.58;;
25639;SDS011;13497;48.322;16.204;2023-09-07T08:51:34;3.70;;;2.88;;
25639;SDS011;13497;48.322;16.204;2023-09-07T08:54:02;4.60;;;2.92;;
25639;SDS011;13497;48.322;16.204;2023-09-07T08:58:54;5.57;;;2.55;;
25639;SDS011;13497;48.322;16.204;2023-09-07T09:01:19;7.40;;;3.00;;
25639;SDS011;13497;48.322;16.204;2023-09-07T09:03:48;3.25;;;2.60;;
25639;SDS011;13497;48.322;16.204;2023-09-07T09:06:16;4.05;;;2.65;;
25639;SDS011;13497;48.322;16.204;2023-09-07T09:08:47;3.55;;;2.58;;
25639;SDS011;13497;48.322;16.204;2023-09-07T09:11:21;3.40;;;2.97;;
25639;SDS011;13497;48.322;16.204;2023-09-07T09:13:48;3.13;;;2.80;;
25639;SDS011;13497;48.322;16.204;2023-09-07T09:16:15;4.07;;;2.92;;
25639;SDS011;13497;48.322;16.204;2023-09-07T09:18:51;3.47;;;2.90;;
25639;SDS011;13497;48.322;16.204;2023-09-07T09:23:46;3.20;;;2.72;;
25639;SDS011;13497;48.322;16.204;2023-09-07T09:26:14;3.13;;;2.30;;
25639;SDS011;13497;48.322;16.204;2023-09-07T09:28:40;3.17;;;2.40;;
25639;SDS011;13497;48.322;16.204;2023-09-07T09:31:05;8.95;;;4.72;;
25639;SDS011;13497;48.322;16.204;2023-09-07T09:33:37;4.18;;;2.83;;
25639;SDS011;13497;48.322;16.204;2023-09-07T09:36:04;6.00;;;2.88;;
25639;SDS011;13497;48.322;16.204;2023-09-07T09:38:31;5.55;;;3.25;;
25639;SDS011;13497;48.322;16.204;2023-09-07T09:40:57;4.28;;;2.97;;
25639;SDS011;13497;48.322;16.204;2023-09-07T09:43:24;11.60;;;3.47;;
25639;SDS011;13497;48.322;16.204;2023-09-07T09:45:51;3.65;;;2.90;;
25639;SDS011;13497;48.322;16.204;2023-09-07T09:48:21;3.08;;;2.63;;
25639;SDS011;13497;48.322;16.204;2023-09-07T09:50:47;3.38;;;2.97;;
25639;SDS011;13497;48.322;16.204;2023-09-07T09:53:22;4.95;;;2.50;;
25639;SDS011;13497;48.322;16.204;2023-09-07T09:55:52;2.95;;;2.65;;
25639;SDS011;13497;48.322;16.204;2023-09-07T09:58:18;3.65;;;2.78;;
25639;SDS011;13497;48.322;16.204;2023-09-07T10:00:44;8.48;;;2.85;;
25639;SDS011;13497;48.322;16.204;2023-09-07T10:03:21;3.03;;;2.60;;
25639;SDS011;13497;48.322;16.204;2023-09-07T10:05:52;5.10;;;2.95;;
25639;SDS011;13497;48.322;16.204;2023-09-07T10:08:18;5.10;;;2.50;;
25639;SDS011;13497;48.322;16.204;2023-09-07T10:10:48;4.18;;;2.20;;
25639;SDS011;13497;48.322;16.204;2023-09-07T10:13:27;3.05;;;2.45;;
25639;SDS011;13497;48.322;16.204;2023-09-07T10:18:33;3.83;;;2.55;;
25639;SDS011;13497;48.322;16.204;2023-09-07T10:21:00;4.15;;;2.30;;
25639;SDS011;13497;48.322;16.204;2023-09-07T10:23:40;2.55;;;2.35;;
25639;SDS011;13497;48.322;16.204;2023-09-07T10:26:13;2.63;;;2.30;;
25639;SDS011;13497;48.322;16.204;2023-09-07T10:28:41;4.28;;;2.65;;
25639;SDS011;13497;48.322;16.204;2023-09-07T10:31:15;2.80;;;2.50;;
25639;SDS011;13497;48.322;16.204;2023-09-07T10:33:42;4.20;;;2.35;;
25639;SDS011;13497;48.322;16.204;2023-09-07T10:36:08;3.80;;;2.30;;
25639;SDS011;13497;48.322;16.204;2023-09-07T10:38:46;2.83;;;2.30;;
25639;SDS011;13497;48.322;16.204;2023-09-07T10:41:12;3.72;;;2.38;;
25639;SDS011;13497;48.322;16.204;2023-09-07T10:43:46;2.88;;;2.58;;
25639;SDS011;13497;48.322;16.204;2023-09-07T10:46:31;2.95;;;2.40;;
25639;SDS011;13497;48.322;16.204;2023-09-07T10:48:57;2.35;;;2.15;;
25639;SDS011;13497;48.322;16.204;2023-09-07T10:51:22;2.35;;;2.10;;
25639;SDS011;13497;48.322;16.204;2023-09-07T10:53:48;2.28;;;2.08;;
25639;SDS011;13497;48.322;16.204;2023-09-07T10:56:14;2.78;;;1.90;;
25639;SDS011;13497;48.322;16.204;2023-09-07T10:58:40;4.47;;;2.38;;
25639;SDS011;13497;48.322;16.204;2023-09-07T11:01:07;2.80;;;2.17;;
25639;SDS011;13497;48.322;16.204;2023-09-07T11:03:34;1.90;;;1.80;;
25639;SDS011;13497;48.322;16.204;2023-09-07T11:08:42;2.63;;;1.90;;
25639;SDS011;13497;48.322;16.204;2023-09-07T11:11:08;2.63;;;1.88;;
25639;SDS011;13497;48.322;16.204;2023-09-07T11:13:34;2.35;;;1.80;;
25639;SDS011;13497;48.322;16.204;2023-09-07T11:16:00;2.42;;;2.15;;
25639;SDS011;13497;48.322;16.204;2023-09-07T11:18:25;3.65;;;1.90;;
25639;SDS011;13497;48.322;16.204;2023-09-07T11:20:52;3.53;;;1.83;;
25639;SDS011;13497;48.322;16.204;2023-09-07T11:23:19;2.05;;;1.75;;
25639;SDS011;13497;48.322;16.204;2023-09-07T11:25:46;2.95;;;2.20;;
25639;SDS011;13497;48.322;16.204;2023-09-07T11:28:15;2.20;;;1.83;;
25639;SDS011;13497;48.322;16.204;2023-09-07T11:30:52;1.95;;;1.60;;
25639;SDS011;13497;48.322;16.204;2023-09-07T11:33:20;6.25;;;1.73;;
25639;SDS011;13497;48.322;16.204;2023-09-07T11:35:46;3.08;;;1.65;;
25639;SDS011;13497;48.322;16.204;2023-09-07T11:38:13;1.60;;;1.48;;
25639;SDS011;13497;48.322;16.204;2023-09-07T11:40:40;2.33;;;1.90;;
25639;SDS011;13497;48.322;16.204;2023-09-07T11:43:13;5.72;;;1.65;;
25639;SDS011;13497;48.322;16.204;2023-09-07T11:45:40;2.08;;;1.77;;
25639;SDS011;13497;48.322;16.204;2023-09-07T11:48:07;3.20;;;1.90;;
25639;SDS011;13497;48.322;16.204;2023-09-07T11:50:35;1.70;;;1.60;;
25639;SDS011;13497;48.322;16.204;2023-09-07T11:53:01;2.25;;;1.75;;
25639;SDS011;13497;48.322;16.204;2023-09-07T11:55:27;2.38;;;1.70;;
25639;SDS011;13497;48.322;16.204;2023-09-07T11:57:53;1.63;;;1.52;;
25639;SDS011;13497;48.322;16.204;2023-09-07T12:00:19;2.65;;;1.50;;
25639;SDS011;13497;48.322;16.204;2023-09-07T12:05:10;1.70;;;1.60;;
25639;SDS011;13497;48.322;16.204;2023-09-07T12:07:40;1.70;;;1.60;;
25639;SDS011;13497;48.322;16.204;2023-09-07T12:10:08;1.70;;;1.60;;
25639;SDS011;13497;48.322;16.204;2023-09-07T12:12:38;2.63;;;1.75;;
25639;SDS011;13497;48.322;16.204;2023-09-07T12:15:04;2.00;;;1.55;;
25639;SDS011;13497;48.322;16.204;2023-09-07T12:17:31;1.83;;;1.35;;
25639;SDS011;13497;48.322;16.204;2023-09-07T12:19:57;2.60;;;1.70;;
25639;SDS011;13497;48.322;16.204;2023-09-07T12:22:24;1.83;;;1.60;;
25639;SDS011;13497;48.322;16.204;2023-09-07T12:24:50;2.70;;;1.60;;
25639;SDS011;13497;48.322;16.204;2023-09-07T12:27:16;1.98;;;1.77;;
25639;SDS011;13497;48.322;16.204;2023-09-07T12:32:07;1.58;;;1.38;;
25639;SDS011;13497;48.322;16.204;2023-09-07T12:34:33;1.90;;;1.52;;
25639;SDS011;13497;48.322;16.204;2023-09-07T12:39:24;2.40;;;1.70;;
25639;SDS011;13497;48.322;16.204;2023-09-07T12:41:50;1.65;;;1.55;;
25639;SDS011;13497;48.322;16.204;2023-09-07T12:44:16;4.90;;;1.85;;
25639;SDS011;13497;48.322;16.204;2023-09-07T12:46:43;2.00;;;1.80;;
25639;SDS011;13497;48.322;16.204;2023-09-07T12:49:09;2.78;;;1.63;;
25639;SDS011;13497;48.322;16.204;2023-09-07T12:51:35;2.08;;;1.88;;
25639;SDS011;13497;48.322;16.204;2023-09-07T12:56:26;2.00;;;1.77;;
25639;SDS011;13497;48.322;16.204;2023-09-07T12:58:52;2.00;;;1.42;;
25639;SDS011;13497;48.322;16.204;2023-09-07T13:01:18;2.17;;;1.70;;
25639;SDS011;13497;48.322;16.204;2023-09-07T13:03:44;2.40;;;1.73;;
25639;SDS011;13497;48.322;16.204;2023-09-07T13:08:35;1.90;;;1.58;;
25639;SDS011;13497;48.322;16.204;2023-09-07T13:11:01;1.80;;;1.67;;
25639;SDS011;13497;48.322;16.204;2023-09-07T13:13:27;1.65;;;1.50;;
25639;SDS011;13497;48.322;16.204;2023-09-07T13:15:57;2.72;;;1.92;;
25639;SDS011;13497;48.322;16.204;2023-09-07T13:18:23;4.82;;;1.83;;
25639;SDS011;13497;48.322;16.204;2023-09-07T13:20:49;1.98;;;1.70;;
25639;SDS011;13497;48.322;16.204;2023-09-07T13:23:18;3.83;;;2.03;;
25639;SDS011;13497;48.322;16.204;2023-09-07T13:28:09;2.08;;;1.80;;
25639;SDS011;13497;48.322;16.204;2023-09-07T13:33:00;2.08;;;1.45;;
25639;SDS011;13497;48.322;16.204;2023-09-07T13:35:26;1.95;;;1.65;;
25639;SDS011;13497;48.322;16.204;2023-09-07T13:40:18;3.20;;;1.85;;
25639;SDS011;13497;48.322;16.204;2023-09-07T13:42:47;3.30;;;1.60;;
25639;SDS011;13497;48.322;16.204;2023-09-07T13:45:13;1.77;;;1.60;;
25639;SDS011;13497;48.322;16.204;2023-09-07T13:47:39;2.05;;;1.85;;
25639;SDS011;13497;48.322;16.204;2023-09-07T13:52:30;2.00;;;1.60;;
25639;SDS011;13497;48.322;16.204;2023-09-07T13:54:56;2.65;;;1.65;;
25639;SDS011;13497;48.322;16.204;2023-09-07T13:59:50;2.28;;;1.58;;
25639;SDS011;13497;48.322;16.204;2023-09-07T14:02:15;2.20;;;1.85;;
25639;SDS011;13497;48.322;16.204;2023-09-07T14:07:06;1.40;;;1.30;;
25639;SDS011;13497;48.322;16.204;2023-09-07T14:11:58;2.78;;;1.63;;
25639;SDS011;13497;48.322;16.204;2023-09-07T14:14:24;2.05;;;1.60;;
25639;SDS011;13497;48.322;16.204;2023-09-07T14:19:20;1.95;;;1.73;;
25639;SDS011;13497;48.322;16.204;2023-09-07T14:21:45;1.92;;;1.70;;
25639;SDS011;13497;48.322;16.204;2023-09-07T14:26:37;2.72;;;1.70;;
25639;SDS011;13497;48.322;16.204;2023-09-07T14:31:28;2.42;;;1.73;;
25639;SDS011;13497;48.322;16.204;2023-09-07T14:33:53;1.60;;;1.50;;
25639;SDS011;13497;48.322;16.204;2023-09-07T14:36:19;1.48;;;1.38;;
25639;SDS011;13497;48.322;16.204;2023-09-07T14:41:11;14.13;;;1.80;;
25639;SDS011;13497;48.322;16.204;2023-09-07T14:43:43;4.72;;;1.60;;
25639;SDS011;13497;48.322;16.204;2023-09-07T14:46:13;2.42;;;1.75;;
25639;SDS011;13497;48.322;16.204;2023-09-07T14:48:39;1.77;;;1.67;;
25639;SDS011;13497;48.322;16.204;2023-09-07T14:53:30;2.10;;;1.80;;
25639;SDS011;13497;48.322;16.204;2023-09-07T14:55:56;1.70;;;1.60;;
25639;SDS011;13497;48.322;16.204;2023-09-07T15:00:47;1.67;;;1.48;;
25639;SDS011;13497;48.322;16.204;2023-09-07T15:05:38;1.63;;;1.52;;
25639;SDS011;13497;48.322;16.204;2023-09-07T15:10:31;2.63;;;1.58;;
25639;SDS011;13497;48.322;16.204;2023-09-07T15:12:59;2.20;;;1.95;;
25639;SDS011;13497;48.322;16.204;2023-09-07T15:15:29;3.33;;;1.60;;
25639;SDS011;13497;48.322;16.204;2023-09-07T15:17:58;1.60;;;1.50;;
25639;SDS011;13497;48.322;16.204;2023-09-07T15:20:25;1.67;;;1.58;;
25639;SDS011;13497;48.322;16.204;2023-09-07T15:22:50;1.65;;;1.23;;
25639;SDS011;13497;48.322;16.204;2023-09-07T15:25:16;2.65;;;1.60;;
25639;SDS011;13497;48.322;16.204;2023-09-07T15:30:10;4.38;;;1.55;;
25639;SDS011;13497;48.322;16.204;2023-09-07T15:32:37;2.00;;;1.80;;
25639;SDS011;13497;48.322;16.204;2023-09-07T15:35:04;2.67;;;1.70;;
25639;SDS011;13497;48.322;16.204;2023-09-07T15:37:33;4.30;;;1.80;;
25639;SDS011;13497;48.322;16.204;2023-09-07T15:39:58;1.45;;;1.35;;
25639;SDS011;13497;48.322;16.204;2023-09-07T15:42:24;3.47;;;1.45;;
25639;SDS011;13497;48.322;16.204;2023-09-07T15:44:51;2.92;;;2.00;;
25639;SDS011;13497;48.322;16.204;2023-09-07T15:49:43;2.67;;;2.08;;